Wetterdaten: Dezember 2008
Datum Temp. A. Feuchte A. Luftdruck Regen Wind Richtung Taupunkt Windchill Windben
01.12.2008 1,6 C 91 % 996 hPa 5,7 l/m 5,2 km/h W-NW 0,3 C -0,1 C 6,2 km/h
02.12.2008 0,9 C 89 % 1007 hPa 0,0 l/m 1,7 km/h W-NW -0,8 C 0,9 C 2,7 km/h
03.12.2008 2,0 C 78 % 1001 hPa 0,0 l/m 12,9 km/h NW -1,4 C -3,1 C 13,9 km/h
04.12.2008 3,1 C 87 % 996 hPa 2,6 l/m 8,9 km/h N-NO 1,1 C 0,7 C 9,9 km/h
05.12.2008 3,7 C 90 % 994 hPa 1,6 l/m 4,4 km/h NO 2,1 C 3,7 C 5,4 km/h
06.12.2008 4,0 C 90 % 1007 hPa 3,1 l/m 2,9 km/h W-NW 2,4 C 3,0 C 3,9 km/h
07.12.2008 2,4 C 89 % 1023 hPa 0,5 l/m 0,0 km/h W-NW 0,7 C 2,4 C 1,0 km/h
08.12.2008 0,7 C 89 % 1022 hPa 0,0 l/m 0,9 km/h N -1,1 C 0,7 C 1,9 km/h
09.12.2008 1,4 C 86 % 1013 hPa 0,0 l/m 6,1 km/h N -0,8 C 0,9 C 7,1 km/h
10.12.2008 0,6 C 92 % 1009 hPa 0,5 l/m 0,0 km/h NO -0,5 C 0,6 C 1,0 km/h
11.12.2008 0,5 C 93 % 1008 hPa 0,0 l/m 0,3 km/h O -0,5 C 0,5 C 1,4 km/h
12.12.2008 0,2 C 92 % 1016 hPa 7,8 l/m 0,0 km/h O -1,0 C 0,2 C 1,0 km/h
13.12.2008 0,4 C 91 % 1004 hPa 5,2 l/m 4,8 km/h N-NO -0,8 C 0,0 C 5,8 km/h
14.12.2008 -0,2 C 91 % 1002 hPa 0,0 l/m 0,0 km/h O -1,5 C -0,2 C 1,0 km/h
15.12.2008 -0,6 C 89 % 1010 hPa 0,0 l/m 1,7 km/h NO -2,2 C -0,7 C 2,7 km/h
16.12.2008 2,2 C 92 % 1010 hPa 0,0 l/m 3,3 km/h N-NO 1,0 C 2,2 C 4,3 km/h
17.12.2008 0,7 C 92 % 1010 hPa 0,0 l/m 5,8 km/h N-NW -0,4 C 0,6 C 6,8 km/h
18.12.2008 1,5 C 93 % 1017 hPa 0,5 l/m 3,1 km/h N-NW 0,4 C 1,5 C 4,1 km/h
19.12.2008 2,4 C 92 % 1021 hPa 1,6 l/m 5,0 km/h W-NW 1,2 C 1,5 C 6,0 km/h
20.12.2008 5,1 C 93 % 1021 hPa 4,1 l/m 12,0 km/h W-NW 4,0 C 0,9 C 13,0 km/h
21.12.2008 5,1 C 94 % 1028 hPa 1,6 l/m 2,4 km/h W-NW 4,2 C 5,1 C 3,4 km/h
22.12.2008 6,2 C 92 % 1028 hPa 1,6 l/m 4,1 km/h W-NW 4,9 C 5,3 C 5,1 km/h
23.12.2008 3,9 C 89 % 1031 hPa 0,0 l/m 1,0 km/h W-NW 2,2 C 3,9 C 2,0 km/h
24.12.2008 4,8 C 89 % 1025 hPa 0,5 l/m 0,0 km/h W-NW 3,1 C 4,8 C 1,0 km/h
25.12.2008 1,4 C 78 % 1029 hPa 0,0 l/m 10,1 km/h NO -2,0 C -2,3 C 11,1 km/h
26.12.2008 -1,6 C 75 % 1033 hPa 0,5 l/m 8,4 km/h O -5,6 C -4,3 C 9,4 km/h
27.12.2008 -1,3 C 72 % 1031 hPa 0,0 l/m 8,7 km/h O -5,7 C -3,6 C 11,6 km/h
28.12.2008 -2,9 C 74 % 1026 hPa 0,0 l/m 3,1 km/h O -7,0 C -3,5 C 6,8 km/h
29.12.2008 -6,0 C 80 % 1028 hPa 0,0 l/m 1,9 km/h O -9,1 C -6,3 C 2,9 km/h
30.12.2008 -5,8 C 79 % 1028 hPa 0,0 l/m 1,5 km/h O -8,9 C -5,8 C 2,5 km/h
31.12.2008 -5,7 C 83 % 1023 hPa 0,0 l/m 3,1 km/h O -8,2 C -5,7 C 4,1 km/h
Min-Datum 30.12.08 28.12.08 05.12.08 15 Tage 01.12.08 - 30.12.08 25.12.08 01.12.08
Min-Zeit 07:25 13:35 00:20 - 00:00 - 07:25 22:55 00:00
Minimum -10,7 C 59 % 990 hPa - 0,0 km/h - -12,9 C -17,2 C 1,0 km/h
Max-Datum 21.12.08 21.12.08 26.12.08 12.12.08 03.12.08 - 21.12.08 21.12.08 20.12.08
Max-Zeit 16:45 14:15 09:20 19:10 12:05 - 16:45 16:50 19:10
Maximum 7,6 C 95 % 1035 hPa 7,8 l/m 43,1 km/h
NW
- 6,9 C 7,6 C 61,2 km/h
W-NW
Durchschnitt 1,0 C 87 % 1016 hPa #37,3 l/m 4,0 km/h W-NW -1,0 C 0,1 C 5,1 km/h

Durchschnitt Minimum Temp.-1,7 C
Durchschnitt Maximum Temp.3,7 C